• Join FlightAware (Why Join?)
  • Login
  • US Flag GB Flag 
17:39 EDT


 

Airport Tracker/Info


-or-


 

Live Flight TrackerFlight Track Log ✈ EJA922 ✈ 16-Aug-2013 ✈ KDET - KMKE

Flight Track Log - Related Links

Times and Time Zones

All times are in EDT time to prevent confusion due to time zone crossing. See the EJA922 flight status page for this flight to view local times or setup timezone preferences in your user account.

Time Position Orientation Groundspeed Altitude Reporting Facility
EDT Latitude Longitude Course Direction KTS MPH feet Rate Location/Type
17:11 42.3564 -82.9575 142° Southeast 260 299 4,300  Level Cleveland Center
17:12 42.2903 -82.9381 168° South 267 307 7,100 2,820 Climbing Cleveland Center
17:13 42.2036 -82.9883 203° Southwest 294 338 11,000 2,580 Climbing Cleveland Center
17:14 42.1453 -83.0811 230° Southwest 308 354 13,200 2,460 Climbing Cleveland Center
17:15 42.1819 -83.2228 289° West 296 341 16,000 2,280 Climbing Cleveland Center
17:16 42.4168 -83.9669 270° West  Level FlightAware Approximate
17:16 42.2228 -83.3422 295° West 335 386 17,800  Level Cleveland Center
17:17 42.2733 -83.4875 295° West 398 458 18,000 60 Climbing Cleveland Center
17:18 42.3339 -83.6450 298° West 429 494 18,000 480 Level Cleveland Center
17:19 42.3864 -83.7881 296° West 429 494 19,000 960 Climbing Cleveland Center
17:20 42.4425 -83.9428 296° West 434 499 20,000 480 Climbing Cleveland Center
17:21 42.4964 -84.0922 296° West 434 499 20,000  Level Cleveland Center
17:22 42.5481 -84.2389 296° West 439 505 20,000  Level Cleveland Center
17:24 42.6519 -84.5264 296° West 448 516 20,000  Level Chicago Center
17:25 42.7058 -84.6792 296° West 450 518 20,000  Level Chicago Center
17:26 42.7581 -84.8325 295° West 448 516 20,000  Level Chicago Center
17:27 42.8114 -84.9856 295° West 449 517 20,000  Level Chicago Center
17:28 42.8644 -85.1408 295° West 453 521 20,000  Level Chicago Center
17:30 42.9278 -85.3239 295° West 448 516 20,000  Level Chicago Center
17:31 42.9803 -85.4786 295° West 451 519 20,000  Level Chicago Center
17:32 43.0331 -85.6322 295° West 450 518 20,000  Level Chicago Center
17:33 43.0853 -85.7864 295° West 451 519 20,000  Level Chicago Center
17:34 43.1358 -85.9386 295° West 453 521 20,000  Level Chicago Center
17:35 43.1700 -86.1333 284° West 459 528 20,000  Level Chicago Center
17:36 43.1669 -86.3039 269° West 458 527 20,000 -60 Level Chicago Center
17:37 43.1631 -86.4725 268° West 452 520 19,900 -1,260 Descending Chicago Center
17:38 43.1597 -86.6439 269° West 452 520 17,400 -2,820 Descending Chicago Center
17:39 43.1556 -86.8433 268° West 438 504 14,100 -1,980 Descending Chicago Center
17:40 43.1517 -87.0044 268° West 430 495 13,400 -1,320 Descending Chicago Center
17:41 43.1486 -87.1542 268° West 400 460 11,400 -1,680 Descending Chicago Center
17:42 43.1450 -87.3042 268° West 397 457 10,000 -720 Descending Chicago Center
17:43 43.1231 -87.4561 259° West 395 455 10,000 -300 Level Chicago Center
17:44 43.0969 -87.5944 256° West 308 354 9,500 -1,260 Descending Chicago Center
17:45 43.0769 -87.7000 255° West 289 333 7,500 -1,260 Descending Chicago Center
17:46 43.0556 -87.8019 254° West 280 322 7,000 -240 Descending Chicago Center
17:47 43.0358 -87.9019 255° West 272 313 7,000 -660 Level Chicago Center
17:48 43.0175 -87.9961 255° West 259 298 5,700 -1,440 Descending Chicago Center
17:49 42.9886 -88.0889 247° West 262 302 4,100 -1,440 Descending Chicago Center
17:50 42.9172 -88.0864 179° South 246 283 2,800 -900 Descending Chicago Center
17:51 42.9131 -88.0242 95° East 203 234 2,300 -600 Descending Chicago Center
17:52 42.9242 -87.9775 72° East 139 160 1,600 -660 Descending Chicago Center
17:53 42.9342 -87.9364 72° East 127 146 1,000 -480 Descending Chicago Center
17:54 42.9447 -87.8950 71° East 125 144 700 -300 Descending Chicago Center
17:56 42.9469 -87.8971 North  Level Estimated